createdAt,value
2023-04-01T00:00:43.113Z,82.42
2023-04-01T00:02:27.992Z,82.48
2023-04-01T00:04:03.178Z,82.41
2023-04-01T00:05:37.135Z,82.58
2023-04-01T00:07:12.466Z,82.67
2023-04-01T00:08:57.866Z,82.42
2023-04-01T00:10:21.651Z,82.37
2023-04-01T00:11:46.332Z,82.51
2023-04-01T00:13:31.202Z,82.36
2023-04-01T00:15:16.548Z,82.42
2023-04-01T00:16:46.119Z,82.43
2023-04-01T00:18:08.394Z,82.53
2023-04-01T00:19:33.046Z,82.06
2023-04-01T00:21:16.735Z,82.11
2023-04-01T00:22:57.515Z,82.09
2023-04-01T00:24:42.624Z,82.09
2023-04-01T00:26:36.660Z,81.85
2023-04-01T00:28:00.680Z,82.22
2023-04-01T00:29:34.122Z,82.21
2023-04-01T00:31:07.835Z,82.02
2023-04-01T00:32:40.916Z,82.14
2023-04-01T00:34:29.076Z,82.20
2023-04-01T00:35:53.434Z,82.43
2023-04-01T00:37:26.552Z,82.44
2023-04-01T00:38:55.485Z,82.42
2023-04-01T00:40:31.247Z,82.44
2023-04-01T00:42:05.060Z,82.24
2023-04-01T00:43:38.399Z,82.44
2023-04-01T00:45:23.682Z,82.53
2023-04-01T00:46:55.630Z,82.61
2023-04-01T00:48:35.761Z,82.75
2023-04-01T00:50:21.912Z,82.59
2023-04-01T00:52:16.674Z,82.60
2023-04-01T00:53:52.985Z,82.49
2023-04-01T00:55:26.354Z,82.54
2023-04-01T00:56:58.865Z,82.63
2023-04-01T00:58:34.714Z,82.35
2023-04-01T01:00:10.494Z,82.29
2023-04-01T01:01:32.365Z,82.48
2023-04-01T01:03:13.807Z,82.43
2023-04-01T01:05:02.083Z,82.36
2023-04-01T01:06:42.868Z,82.58
2023-04-01T01:08:07.153Z,82.50
2023-04-01T01:09:49.637Z,82.59
2023-04-01T01:11:25.307Z,82.73
2023-04-01T01:13:01.569Z,82.60
2023-04-01T01:14:35.046Z,82.47
2023-04-01T01:16:08.034Z,82.70
2023-04-01T01:17:41.791Z,82.51
2023-04-01T01:19:36.653Z,82.50
2023-04-01T01:21:21.742Z,82.76
2023-04-01T01:22:55.037Z,82.72
2023-04-01T01:24:40.351Z,82.89
2023-04-01T01:26:29.739Z,82.57
2023-04-01T01:28:15.179Z,82.58
2023-04-01T01:29:42.398Z,82.36
2023-04-01T01:31:27.623Z,82.67
2023-04-01T01:33:12.916Z,82.56
2023-04-01T01:35:00.273Z,82.68
2023-04-01T01:36:37.766Z,82.55
2023-04-01T01:38:25.171Z,82.61
2023-04-01T01:40:06.209Z,82.58
2023-04-01T01:42:00.635Z,82.52
2023-04-01T01:43:36.441Z,82.45
2023-04-01T01:45:21.302Z,82.66
2023-04-01T01:46:47.516Z,82.82
2023-04-01T01:48:20.922Z,82.95
2023-04-01T01:50:15.613Z,82.86
2023-04-01T01:51:47.036Z,82.95
2023-04-01T01:53:31.775Z,82.90
2023-04-01T01:55:06.019Z,82.99
2023-04-01T01:57:00.419Z,83.06
2023-04-01T01:58:47.545Z,82.97
2023-04-01T02:00:26.195Z,82.96
2023-04-01T02:02:04.274Z,82.72
2023-04-01T02:03:46.639Z,82.71
2023-04-01T02:05:10.711Z,82.62
2023-04-01T02:07:05.610Z,82.57
2023-04-01T02:08:39.094Z,82.77
2023-04-01T02:10:12.827Z,82.92
2023-04-01T02:11:58.097Z,82.92
2023-04-01T02:13:51.718Z,83.08
2023-04-01T02:15:45.620Z,83.09
2023-04-01T02:17:30.629Z,83.00
2023-04-01T02:19:11.587Z,82.99
2023-04-01T02:21:05.605Z,82.91
2023-04-01T02:22:50.476Z,82.97
2023-04-01T02:24:35.136Z,83.03
2023-04-01T02:26:12.390Z,82.90
2023-04-01T02:27:49.102Z,82.98
2023-04-01T02:29:31.053Z,83.05
2023-04-01T02:31:14.657Z,83.05
2023-04-01T02:33:00.231Z,83.08
2023-04-01T02:34:54.621Z,82.83
2023-04-01T02:36:44.908Z,82.97
2023-04-01T02:38:07.631Z,82.77
2023-04-01T02:39:43.975Z,82.60
2023-04-01T02:41:19.755Z,82.61
2023-04-01T02:42:53.571Z,82.83
2023-04-01T02:44:29.236Z,82.89
2023-04-01T02:46:02.957Z,82.97
2023-04-01T02:47:48.045Z,82.85
2023-04-01T02:49:21.724Z,82.70
2023-04-01T02:51:03.702Z,82.74
2023-04-01T02:52:49.786Z,82.57
2023-04-01T02:54:25.637Z,82.81
2023-04-01T02:56:03.726Z,82.95
2023-04-01T02:57:44.642Z,82.78
2023-04-01T02:59:20.325Z,82.83
2023-04-01T03:01:05.626Z,82.96
2023-04-01T03:02:38.782Z,82.55
2023-04-01T03:04:11.983Z,82.52
2023-04-01T03:05:58.995Z,82.62
2023-04-01T03:07:20.615Z,82.45
2023-04-01T03:09:16.626Z,82.54
2023-04-01T03:10:53.100Z,82.62
2023-04-01T03:12:26.552Z,82.64
2023-04-01T03:14:02.185Z,82.54
2023-04-01T03:15:25.880Z,82.68
2023-04-01T03:17:10.660Z,82.73
2023-04-01T03:19:04.441Z,82.93
2023-04-01T03:20:49.695Z,82.96
2023-04-01T03:22:22.890Z,82.77
2023-04-01T03:24:08.240Z,82.91
2023-04-01T03:25:44.347Z,82.59
2023-04-01T03:27:29.645Z,82.78
2023-04-01T03:29:03.528Z,82.82
2023-04-01T03:30:57.769Z,82.74
2023-04-01T03:32:35.085Z,83.16
2023-04-01T03:34:11.018Z,83.09
2023-04-01T03:35:53.743Z,82.97
2023-04-01T03:37:34.231Z,83.00
2023-04-01T03:39:07.859Z,82.78
2023-04-01T03:40:53.608Z,82.93
2023-04-01T03:44:28.748Z,83.08
2023-04-01T03:46:10.200Z,82.76
2023-04-01T03:47:32.059Z,82.82
2023-04-01T03:49:17.236Z,82.95
2023-04-01T03:51:01.203Z,82.97
2023-04-01T03:52:34.367Z,83.07
2023-04-01T03:54:16.266Z,82.81
2023-04-01T03:56:01.515Z,82.94
2023-04-01T03:57:42.547Z,82.52
2023-04-01T03:59:21.652Z,82.40
2023-04-01T04:01:02.662Z,82.39
2023-04-01T04:02:38.388Z,82.33
2023-04-01T04:04:23.252Z,82.46
2023-04-01T04:06:08.917Z,82.39
2023-04-01T04:07:44.716Z,82.20
2023-04-01T04:09:18.078Z,82.36
2023-04-01T04:10:47.324Z,82.41
2023-04-01T04:12:23.048Z,82.20
2023-04-01T04:14:04.627Z,82.00
2023-04-01T04:15:37.950Z,82.12
2023-04-01T04:17:24.920Z,82.28
2023-04-01T04:19:10.038Z,82.19
2023-04-01T04:20:52.643Z,82.33
2023-04-01T04:22:37.641Z,82.52
2023-04-01T04:24:12.717Z,82.14
2023-04-01T04:26:13.634Z,82.25
2023-04-01T04:27:54.684Z,82.35
2023-04-01T04:29:30.663Z,82.22
2023-04-01T04:31:17.475Z,82.54
2023-04-01T04:32:43.688Z,82.53
2023-04-01T04:34:29.219Z,82.55
2023-04-01T04:36:10.565Z,82.70
2023-04-01T04:37:45.875Z,82.71
2023-04-01T04:39:20.450Z,82.88
2023-04-01T04:41:14.659Z,82.81
2023-04-01T04:43:00.687Z,82.86
2023-04-01T04:44:51.645Z,83.01
2023-04-01T04:46:45.142Z,82.79
2023-04-01T04:48:21.093Z,82.96
2023-04-01T04:50:05.285Z,82.64
2023-04-01T04:51:48.641Z,82.53
2023-04-01T04:53:22.448Z,82.53
2023-04-01T04:55:07.281Z,82.58
2023-04-01T04:57:00.856Z,82.61
2023-04-01T04:58:36.304Z,82.49
2023-04-01T04:59:59.295Z,82.73
2023-04-01T05:01:44.277Z,82.64
2023-04-01T05:03:06.576Z,82.50
2023-04-01T05:04:40.468Z,82.49
2023-04-01T05:06:16.238Z,82.72
2023-04-01T05:08:10.653Z,82.93
2023-04-01T05:09:50.916Z,82.84
2023-04-01T05:11:36.136Z,82.67
2023-04-01T05:13:21.140Z,82.42
2023-04-01T05:15:06.246Z,82.62
2023-04-01T05:16:51.751Z,82.70
2023-04-01T05:18:27.902Z,82.98
2023-04-01T05:20:13.293Z,82.36
2023-04-01T05:21:54.067Z,82.32
2023-04-01T05:23:36.933Z,82.57
2023-04-01T05:25:08.013Z,82.41
2023-04-01T05:26:32.253Z,82.76
2023-04-01T05:28:08.139Z,82.62
2023-04-01T05:29:41.237Z,82.77
2023-04-01T05:31:11.697Z,82.46
2023-04-01T05:32:54.415Z,82.49
2023-04-01T05:34:27.443Z,82.40
2023-04-01T05:36:22.638Z,82.21
2023-04-01T05:38:08.735Z,82.45
2023-04-01T05:39:44.411Z,82.10
2023-04-01T05:41:38.619Z,82.23
2023-04-01T05:43:24.500Z,82.27
2023-04-01T05:45:04.874Z,81.97
2023-04-01T05:46:49.322Z,82.11
2023-04-01T05:48:42.206Z,82.07
2023-04-01T05:50:27.944Z,82.29
2023-04-01T05:52:09.338Z,82.13
2023-04-01T05:53:54.716Z,82.25
2023-04-01T05:55:48.632Z,82.07
2023-04-01T05:57:34.978Z,82.10
2023-04-01T05:59:05.101Z,82.17
2023-04-01T06:01:02.303Z,82.44
2023-04-01T06:02:54.776Z,82.04
2023-04-01T06:04:39.712Z,82.05
2023-04-01T06:06:24.878Z,82.05
2023-04-01T06:07:57.270Z,81.85
2023-04-01T06:09:33.077Z,81.95
2023-04-01T06:11:18.460Z,82.30
2023-04-01T06:12:51.973Z,82.13
2023-04-01T06:14:36.740Z,81.99
2023-04-01T06:16:21.526Z,82.10
2023-04-01T06:17:55.237Z,82.14
2023-04-01T06:19:22.386Z,81.87
2023-04-01T06:20:58.516Z,81.85
2023-04-01T06:22:31.877Z,81.67
2023-04-01T06:24:26.685Z,81.77
2023-04-01T06:26:08.728Z,81.61
2023-04-01T06:27:30.635Z,81.53
2023-04-01T06:29:15.743Z,81.73
2023-04-01T06:31:01.232Z,81.55
2023-04-01T06:32:30.722Z,81.26
2023-04-01T06:34:25.628Z,81.08
2023-04-01T06:35:52.095Z,81.09
2023-04-01T06:37:45.491Z,80.77
2023-04-01T06:39:34.947Z,81.12
2023-04-01T06:41:20.063Z,80.87
2023-04-01T06:43:05.567Z,80.63
2023-04-01T06:44:57.810Z,80.67
2023-04-01T06:46:49.940Z,80.52
2023-04-01T06:48:32.889Z,80.65
2023-04-01T06:50:24.946Z,80.81
2023-04-01T06:51:49.174Z,80.34
2023-04-01T06:53:41.264Z,80.08
2023-04-01T06:56:11.552Z,79.84
2023-04-01T06:57:56.783Z,80.23
2023-04-01T06:59:33.318Z,80.18
2023-04-01T07:01:15.086Z,80.00
2023-04-01T07:02:53.025Z,79.55
2023-04-01T07:04:26.590Z,79.55
2023-04-01T07:06:11.905Z,79.62
2023-04-01T07:07:55.509Z,79.68
2023-04-01T07:09:28.713Z,79.92
2023-04-01T07:11:20.629Z,79.67
2023-04-01T07:13:29.584Z,79.47
2023-04-01T07:15:13.702Z,79.37
2023-04-01T07:16:59.071Z,79.18
2023-04-01T07:18:34.511Z,79.34
2023-04-01T07:19:58.331Z,79.40
2023-04-01T07:21:43.715Z,79.51
2023-04-01T07:23:24.074Z,79.33
2023-04-01T07:25:10.773Z,79.24
2023-04-01T07:26:55.777Z,79.37
2023-04-01T07:28:33.015Z,79.20
2023-04-01T07:30:11.512Z,79.00
2023-04-01T07:31:44.771Z,78.82
2023-04-01T07:33:06.558Z,78.81
2023-04-01T07:34:42.960Z,78.60
2023-04-01T07:36:24.393Z,78.77
2023-04-01T07:38:09.426Z,78.85
2023-04-01T07:39:31.037Z,78.67
2023-04-01T07:41:13.567Z,78.64
2023-04-01T07:43:07.699Z,78.80
2023-04-01T07:45:02.650Z,78.47
2023-04-01T07:46:52.678Z,78.67
2023-04-01T07:48:33.938Z,78.27
2023-04-01T07:49:57.802Z,78.05
2023-04-01T07:51:28.686Z,78.47
2023-04-01T07:52:57.644Z,78.73
2023-04-01T07:54:21.737Z,78.35
2023-04-01T07:55:50.868Z,78.56
2023-04-01T07:57:46.666Z,78.53
2023-04-01T07:59:19.949Z,78.28
2023-04-01T08:01:13.102Z,78.23
2023-04-01T08:02:58.465Z,78.19
2023-04-01T08:04:43.720Z,78.15
2023-04-01T08:06:20.587Z,78.14
2023-04-01T08:08:03.780Z,78.16
2023-04-01T08:10:05.639Z,78.11
2023-04-01T08:12:05.716Z,77.91
2023-04-01T08:14:06.523Z,77.89
2023-04-01T08:15:50.762Z,77.09
2023-04-01T08:17:56.666Z,77.38
2023-04-01T08:19:50.626Z,76.98
2023-04-01T08:21:34.999Z,76.42
2023-04-01T08:23:18.628Z,76.54
2023-04-01T08:25:03.620Z,76.84
2023-04-01T08:26:54.716Z,76.70
2023-04-01T08:28:39.670Z,77.05
2023-04-01T08:30:20.527Z,76.51
2023-04-01T08:31:52.431Z,76.81
2023-04-01T08:33:38.160Z,77.03
2023-04-01T08:35:26.774Z,76.61
2023-04-01T08:36:50.814Z,76.98
2023-04-01T08:38:26.967Z,77.29
2023-04-01T08:40:00.520Z,77.39
2023-04-01T08:41:36.286Z,77.26
2023-04-01T08:43:20.110Z,77.76
2023-04-01T08:45:07.222Z,77.87
2023-04-01T08:46:52.331Z,78.02
2023-04-01T08:48:45.807Z,77.04
2023-04-01T08:50:42.597Z,77.55
2023-04-01T08:52:44.627Z,77.55
2023-04-01T08:54:39.632Z,77.05
2023-04-01T08:56:11.258Z,77.87
2023-04-01T08:57:54.726Z,77.95
2023-04-01T09:00:16.597Z,78.60
2023-04-01T09:02:17.374Z,79.02
2023-04-01T09:04:09.377Z,78.94
2023-04-01T09:05:42.532Z,78.94
2023-04-01T09:07:35.858Z,79.00
2023-04-01T09:09:21.105Z,78.64
2023-04-01T09:10:48.002Z,78.51
2023-04-01T09:13:08.717Z,78.77
2023-04-01T09:14:49.401Z,78.32
2023-04-01T09:16:45.603Z,78.53
2023-04-01T09:18:21.571Z,78.91
2023-04-01T09:20:16.630Z,78.81
2023-04-01T09:22:03.675Z,79.07
2023-04-01T09:23:57.635Z,78.99
2023-04-01T09:25:45.724Z,79.10
2023-04-01T09:27:18.921Z,79.44
2023-04-01T09:29:01.635Z,79.52
2023-04-01T09:30:47.608Z,79.00
2023-04-01T09:32:23.463Z,79.42
2023-04-01T09:34:19.608Z,79.42
2023-04-01T09:36:06.178Z,80.08
2023-04-01T09:37:52.199Z,79.98
2023-04-01T09:39:28.589Z,79.98
2023-04-01T09:40:53.096Z,79.92
2023-04-01T09:42:43.628Z,80.16
2023-04-01T09:44:19.578Z,80.56
2023-04-01T09:46:08.715Z,80.67
2023-04-01T09:47:50.757Z,80.17
2023-04-01T09:49:43.826Z,79.44
2023-04-01T09:51:13.837Z,80.01
2023-04-01T09:52:59.662Z,79.61
2023-04-01T09:54:45.763Z,79.42
2023-04-01T09:56:26.640Z,77.84
2023-04-01T09:58:11.716Z,78.33
2023-04-01T10:00:26.335Z,77.74
2023-04-01T10:02:14.730Z,77.61
2023-04-01T10:03:50.573Z,77.85
2023-04-01T10:05:21.377Z,77.75
2023-04-01T10:07:15.651Z,77.54
2023-04-01T10:09:04.781Z,77.04
2023-04-01T10:10:52.006Z,76.78
2023-04-01T10:12:45.941Z,76.58
2023-04-01T10:14:31.081Z,76.48
2023-04-01T10:16:17.774Z,77.35
2023-04-01T10:17:51.694Z,77.80
2023-04-01T10:19:47.634Z,76.89
2023-04-01T10:21:21.672Z,76.71
2023-04-01T10:23:06.973Z,77.04
2023-04-01T10:24:41.356Z,77.43
2023-04-01T10:26:10.746Z,77.19
2023-04-01T10:27:45.583Z,78.32
2023-04-01T10:29:37.884Z,78.27
2023-04-01T10:31:09.687Z,78.27
2023-04-01T10:32:43.648Z,78.90
2023-04-01T10:34:25.654Z,78.50
2023-04-01T10:35:59.665Z,79.03
2023-04-01T10:37:49.121Z,79.28
2023-04-01T10:39:32.663Z,79.22
2023-04-01T10:41:17.233Z,79.31
2023-04-01T10:43:09.681Z,79.88
2023-04-01T10:44:58.956Z,80.28
2023-04-01T10:46:50.626Z,80.52
2023-04-01T10:48:35.296Z,79.98
2023-04-01T10:50:21.453Z,80.12
2023-04-01T10:51:51.154Z,79.72
2023-04-01T10:53:36.748Z,79.33
2023-04-01T10:56:09.610Z,78.89
2023-04-01T10:58:16.115Z,78.81
2023-04-01T11:00:16.612Z,78.99
2023-04-01T11:02:17.689Z,78.09
2023-04-01T11:04:05.822Z,78.58
2023-04-01T11:05:46.716Z,78.22
2023-04-01T11:07:50.491Z,78.08
2023-04-01T11:09:53.618Z,78.57
2023-04-01T11:11:39.873Z,78.48
2023-04-01T11:13:21.853Z,78.50
2023-04-01T11:15:07.361Z,78.23
2023-04-01T11:16:43.916Z,78.33
2023-04-01T11:18:30.257Z,77.74
2023-04-01T11:20:15.733Z,77.56
2023-04-01T11:22:08.773Z,77.99
2023-04-01T11:24:05.466Z,77.90
2023-04-01T11:25:49.757Z,78.17
2023-04-01T11:27:50.459Z,78.56
2023-04-01T11:29:36.533Z,78.95
2023-04-01T11:31:19.661Z,79.24
2023-04-01T11:33:11.712Z,79.30
2023-04-01T11:35:01.262Z,79.35
2023-04-01T11:36:52.875Z,79.55
2023-04-01T11:38:49.632Z,79.48
2023-04-01T11:40:46.930Z,80.02
2023-04-01T11:42:27.198Z,79.64
2023-04-01T11:44:10.175Z,80.06
2023-04-01T11:45:58.017Z,80.16
2023-04-01T11:47:38.834Z,79.97
2023-04-01T11:49:23.955Z,80.07
2023-04-01T11:51:17.774Z,80.14
2023-04-01T11:52:48.699Z,80.01
2023-04-01T11:54:21.652Z,79.53
2023-04-01T11:56:06.557Z,79.42
2023-04-01T11:58:00.738Z,79.45
2023-04-01T11:59:35.713Z,79.07
2023-04-01T12:01:09.612Z,79.18
2023-04-01T12:02:43.271Z,78.31
2023-04-01T12:04:28.702Z,78.96
2023-04-01T12:06:13.688Z,78.33
2023-04-01T12:07:37.611Z,78.22
2023-04-01T12:09:22.446Z,77.88
2023-04-01T12:11:03.073Z,77.61
2023-04-01T12:12:54.215Z,77.18
2023-04-01T12:16:45.623Z,77.25
2023-04-01T12:18:26.599Z,78.11
2023-04-01T12:20:00.442Z,76.26
2023-04-01T12:21:33.738Z,76.76
2023-04-01T12:23:15.066Z,76.74
2023-04-01T12:24:50.511Z,76.67
2023-04-01T12:26:12.515Z,77.05
2023-04-01T12:27:45.841Z,77.54
2023-04-01T12:29:39.349Z,77.95
2023-04-01T12:31:13.157Z,77.51
2023-04-01T12:32:42.399Z,76.91
2023-04-01T12:34:04.524Z,76.89
2023-04-01T12:35:35.794Z,77.11
2023-04-01T12:37:11.837Z,77.61
2023-04-01T12:38:57.506Z,77.44
2023-04-01T12:40:42.496Z,77.49
2023-04-01T12:42:06.576Z,77.05
2023-04-01T12:43:51.489Z,77.31
2023-04-01T12:45:24.452Z,77.46
2023-04-01T12:46:48.362Z,77.50
2023-04-01T12:48:21.871Z,77.30
2023-04-01T12:49:58.384Z,77.70
2023-04-01T12:51:41.617Z,77.40
2023-04-01T12:53:17.245Z,77.54
2023-04-01T12:55:01.229Z,77.88
2023-04-01T12:56:22.661Z,77.66
2023-04-01T12:58:17.646Z,78.25
2023-04-01T13:00:04.204Z,78.11
2023-04-01T13:01:30.622Z,78.60
2023-04-01T13:03:04.245Z,78.26
2023-04-01T13:04:58.655Z,78.38
2023-04-01T13:06:34.985Z,78.84
2023-04-01T13:08:20.385Z,78.52
2023-04-01T13:09:53.991Z,78.42
2023-04-01T13:11:29.611Z,78.54
2023-04-01T13:12:53.616Z,78.63
2023-04-01T13:14:47.642Z,78.80
2023-04-01T13:16:09.846Z,78.62
2023-04-01T13:18:03.242Z,78.71
2023-04-01T13:21:55.269Z,78.22
2023-04-01T13:23:20.091Z,78.48
2023-04-01T13:24:48.956Z,78.91
2023-04-01T13:26:36.672Z,79.09
2023-04-01T13:28:09.873Z,78.44
2023-04-01T13:29:54.872Z,79.32
2023-04-01T13:33:42.063Z,78.53
2023-04-01T13:35:27.581Z,78.97
2023-04-01T13:37:12.512Z,79.12
2023-04-01T13:38:53.137Z,79.15
2023-04-01T13:40:37.965Z,79.24
2023-04-01T13:42:13.870Z,79.40
2023-04-01T13:43:58.800Z,78.90
2023-04-01T13:45:53.616Z,79.33
2023-04-01T13:47:27.497Z,79.82
2023-04-01T13:49:12.638Z,79.51
2023-04-01T13:50:56.596Z,79.34
2023-04-01T13:52:41.620Z,79.60
2023-04-01T13:54:17.842Z,80.06
2023-04-01T13:55:51.481Z,79.93
2023-04-01T13:57:35.862Z,80.19
2023-04-01T13:59:12.192Z,80.40
2023-04-01T14:01:04.681Z,80.53
2023-04-01T14:02:38.023Z,80.51
2023-04-01T14:04:13.965Z,80.47
2023-04-01T14:05:54.918Z,80.47
2023-04-01T14:07:19.189Z,80.69
2023-04-01T14:08:42.785Z,80.56
2023-04-01T14:10:11.625Z,80.32
2023-04-01T14:12:01.743Z,80.61
2023-04-01T14:13:38.207Z,80.83
2023-04-01T14:15:23.068Z,80.66
2023-04-01T14:16:56.643Z,80.26
2023-04-01T14:18:29.884Z,80.14
2023-04-01T14:20:04.431Z,79.96
2023-04-01T14:21:37.648Z,79.94
2023-04-01T14:23:11.161Z,79.98
2023-04-01T14:24:46.695Z,79.82
2023-04-01T14:26:22.771Z,79.86
2023-04-01T14:27:55.971Z,79.61
2023-04-01T14:29:29.418Z,79.24
2023-04-01T14:30:53.524Z,79.58
2023-04-01T14:32:34.354Z,80.04
2023-04-01T14:34:08.167Z,79.64
2023-04-01T14:35:30.423Z,79.68
2023-04-01T14:36:59.265Z,79.85
2023-04-01T14:38:29.047Z,79.58
2023-04-01T14:40:04.602Z,79.55
2023-04-01T14:41:39.114Z,79.83
2023-04-01T14:43:01.211Z,79.49
2023-04-01T14:44:25.936Z,79.47
2023-04-01T14:45:47.832Z,79.87
2023-04-01T14:47:23.898Z,79.81
2023-04-01T14:49:08.624Z,80.15
2023-04-01T14:50:42.060Z,80.17
2023-04-01T14:52:15.320Z,79.93
2023-04-01T14:53:57.572Z,80.03
2023-04-01T14:55:19.536Z,80.14
2023-04-01T14:56:43.606Z,80.36
2023-04-01T14:58:29.354Z,80.27
2023-04-01T15:00:03.399Z,80.53
2023-04-01T15:01:49.222Z,80.50
2023-04-01T15:03:19.059Z,80.83
2023-04-01T15:04:52.381Z,80.96
2023-04-01T15:06:37.345Z,81.15
2023-04-01T15:08:10.872Z,81.03
2023-04-01T15:09:46.392Z,81.14
2023-04-01T15:11:24.256Z,81.01
2023-04-01T15:12:55.633Z,80.76
2023-04-01T15:14:40.771Z,81.02
2023-04-01T15:16:14.864Z,80.90
2023-04-01T15:18:00.535Z,80.53
2023-04-01T15:19:37.478Z,80.47
2023-04-01T15:21:22.672Z,80.84
2023-04-01T15:23:16.230Z,80.78
2023-04-01T15:25:01.430Z,80.93
2023-04-01T15:26:50.194Z,80.95
2023-04-01T15:28:35.341Z,81.28
2023-04-01T15:30:20.567Z,81.20
2023-04-01T15:32:05.562Z,81.18
2023-04-01T15:34:00.724Z,81.30
2023-04-01T15:35:37.651Z,81.31
2023-04-01T15:37:22.827Z,81.69
2023-04-01T15:38:44.591Z,81.56
2023-04-01T15:40:08.837Z,82.14
2023-04-01T15:41:55.584Z,82.01
2023-04-01T15:43:28.776Z,82.22
2023-04-01T15:44:50.581Z,82.42
2023-04-01T15:46:45.772Z,82.36
2023-04-01T15:48:21.640Z,82.38
2023-04-01T15:49:57.647Z,82.38
2023-04-01T15:51:50.848Z,82.47
2023-04-01T15:53:31.590Z,82.70
2023-04-01T15:55:07.535Z,82.65
2023-04-01T15:56:50.673Z,82.73
2023-04-01T15:58:27.303Z,82.82
2023-04-01T16:00:00.897Z,82.51
2023-04-01T16:01:44.408Z,82.80
2023-04-01T16:03:29.888Z,82.98
2023-04-01T16:05:15.247Z,82.79
2023-04-01T16:06:51.237Z,83.16
2023-04-01T16:08:41.637Z,83.27
2023-04-01T16:10:22.586Z,83.41
2023-04-01T16:12:07.959Z,83.42
2023-04-01T16:13:52.966Z,83.56
2023-04-01T16:15:37.867Z,83.70
2023-04-01T16:17:23.181Z,83.93
2023-04-01T16:18:59.670Z,83.56
2023-04-01T16:20:35.842Z,83.52
2023-04-01T16:22:21.027Z,83.60
2023-04-01T16:23:56.377Z,83.56
2023-04-01T16:25:41.637Z,83.56
2023-04-01T16:27:17.510Z,83.57
2023-04-01T16:29:02.681Z,83.54
2023-04-01T16:30:38.021Z,83.47
2023-04-01T16:32:09.805Z,83.55
2023-04-01T16:33:45.279Z,83.71
2023-04-01T16:35:21.765Z,83.59
2023-04-01T16:36:57.464Z,83.54
2023-04-01T16:38:50.215Z,83.53
2023-04-01T16:40:26.674Z,83.44
2023-04-01T16:42:11.723Z,83.95
2023-04-01T16:43:57.741Z,83.72
2023-04-01T16:45:30.888Z,83.66
2023-04-01T16:46:52.685Z,83.73
2023-04-01T16:48:26.328Z,83.81
2023-04-01T16:49:50.468Z,83.70
2023-04-01T16:51:26.238Z,83.26
2023-04-01T16:53:07.193Z,83.60
2023-04-01T16:54:33.888Z,83.53
2023-04-01T16:56:16.677Z,83.61
2023-04-01T17:00:02.400Z,83.62
2023-04-01T17:01:56.344Z,83.48
2023-04-01T17:03:29.530Z,83.71
2023-04-01T17:05:14.593Z,83.97
2023-04-01T17:07:08.641Z,83.92
2023-04-01T17:08:40.125Z,83.96
2023-04-01T17:10:25.331Z,84.17
2023-04-01T17:11:47.112Z,83.98
2023-04-01T17:13:20.487Z,83.81
2023-04-01T17:14:53.781Z,83.96
2023-04-01T17:16:27.240Z,83.88
2023-04-01T17:18:12.311Z,83.71
2023-04-01T17:19:43.600Z,84.05
2023-04-01T17:21:20.242Z,83.97
2023-04-01T17:23:04.961Z,84.33
2023-04-01T17:24:27.037Z,83.83
2023-04-01T17:26:09.462Z,83.98
2023-04-01T17:27:35.069Z,84.03
2023-04-01T17:29:20.742Z,83.76
2023-04-01T17:31:06.163Z,83.82
2023-04-01T17:32:39.924Z,83.69
2023-04-01T17:34:25.188Z,83.66
2023-04-01T17:35:47.317Z,83.85
2023-04-01T17:37:23.485Z,84.38
2023-04-01T17:39:08.895Z,84.21
2023-04-01T17:40:42.691Z,84.18
2023-04-01T17:42:31.013Z,83.76
2023-04-01T17:44:16.277Z,84.31
2023-04-01T17:46:04.440Z,84.03
2023-04-01T17:47:28.113Z,83.99
2023-04-01T17:49:09.992Z,84.34
2023-04-01T17:50:55.694Z,84.08
2023-04-01T17:52:25.007Z,84.24
2023-04-01T17:53:48.826Z,84.19
2023-04-01T17:55:11.177Z,83.94
2023-04-01T17:56:53.768Z,84.22
2023-04-01T17:58:16.224Z,84.23
2023-04-01T17:59:40.738Z,84.41
2023-04-01T18:01:17.365Z,84.64
2023-04-01T18:02:58.136Z,84.58
2023-04-01T18:04:20.430Z,84.54
2023-04-01T18:06:02.604Z,84.73
2023-04-01T18:07:48.641Z,84.30
2023-04-01T18:09:34.121Z,84.57
2023-04-01T18:11:05.598Z,84.93
2023-04-01T18:12:27.530Z,84.60
2023-04-01T18:14:10.269Z,84.69
2023-04-01T18:15:55.742Z,84.80
2023-04-01T18:17:31.216Z,84.90
2023-04-01T18:19:16.126Z,84.59
2023-04-01T18:20:54.421Z,84.66
2023-04-01T18:22:48.694Z,84.80
2023-04-01T18:24:24.536Z,84.44
2023-04-01T18:26:00.839Z,84.76
2023-04-01T18:27:46.504Z,84.61
2023-04-01T18:29:41.734Z,84.65
2023-04-01T18:31:18.688Z,84.29
2023-04-01T18:32:59.673Z,84.61
2023-04-01T18:34:35.635Z,84.53
2023-04-01T18:36:11.534Z,84.78
2023-04-01T18:37:57.558Z,84.70
2023-04-01T18:39:30.830Z,84.69
2023-04-01T18:41:15.760Z,84.30
2023-04-01T18:42:51.569Z,84.57
2023-04-01T18:44:27.005Z,84.49
2023-04-01T18:46:11.933Z,84.60
2023-04-01T18:48:05.180Z,84.63
2023-04-01T18:49:59.608Z,84.99
2023-04-01T18:51:21.867Z,84.56
2023-04-01T18:52:53.213Z,84.47
2023-04-01T18:54:27.092Z,84.60
2023-04-01T18:55:48.726Z,84.65
2023-04-01T18:57:22.546Z,84.25
2023-04-01T18:59:08.343Z,84.73
2023-04-01T19:00:54.716Z,84.52
2023-04-01T19:02:40.578Z,84.52
2023-04-01T19:04:02.493Z,84.66
2023-04-01T19:05:47.885Z,84.68
2023-04-01T19:07:28.479Z,84.71
2023-04-01T19:09:02.038Z,84.74
2023-04-01T19:10:35.741Z,84.76
2023-04-01T19:12:08.998Z,84.83
2023-04-01T19:13:38.706Z,84.73
2023-04-01T19:15:14.254Z,84.88
2023-04-01T19:17:08.692Z,84.35
2023-04-01T19:18:53.674Z,84.31
2023-04-01T19:20:29.387Z,84.37
2023-04-01T19:22:00.656Z,84.32
2023-04-01T19:23:40.677Z,84.25
2023-04-01T19:25:25.832Z,84.36
2023-04-01T19:27:10.726Z,84.95
2023-04-01T19:29:04.704Z,84.46
2023-04-01T19:30:38.083Z,84.51
2023-04-01T19:32:23.400Z,84.31
2023-04-01T19:34:17.670Z,84.69
2023-04-01T19:35:59.620Z,84.90
2023-04-01T19:37:35.808Z,85.04
2023-04-01T19:39:21.008Z,85.12
2023-04-01T19:41:14.720Z,84.51
2023-04-01T19:42:46.461Z,84.50
2023-04-01T19:44:31.791Z,84.47
2023-04-01T19:46:16.988Z,83.97
2023-04-01T19:47:53.099Z,84.26
2023-04-01T19:49:44.267Z,84.33
2023-04-01T19:51:06.722Z,84.30
2023-04-01T19:53:00.707Z,84.15
2023-04-01T19:54:25.085Z,83.87
2023-04-01T19:55:54.092Z,84.09
2023-04-01T19:57:28.201Z,84.03
2023-04-01T19:58:49.991Z,84.25
2023-04-01T20:00:19.705Z,84.14
2023-04-01T20:02:00.605Z,84.53
2023-04-01T20:03:36.309Z,84.33
2023-04-01T20:05:11.548Z,84.15
2023-04-01T20:06:59.613Z,84.39
2023-04-01T20:08:21.785Z,84.53
2023-04-01T20:10:07.405Z,84.95
2023-04-01T20:11:48.306Z,84.46
2023-04-01T20:13:28.913Z,84.30
2023-04-01T20:15:04.963Z,84.18
2023-04-01T20:16:41.315Z,84.56
2023-04-01T20:18:10.755Z,84.82
2023-04-01T20:19:44.008Z,84.66
2023-04-01T20:21:29.188Z,84.31
2023-04-01T20:22:58.003Z,84.79
2023-04-01T20:24:33.346Z,84.73
2023-04-01T20:26:03.087Z,84.33
2023-04-01T20:27:47.970Z,84.34
2023-04-01T20:29:33.093Z,84.66
2023-04-01T20:31:18.564Z,84.74
2023-04-01T20:32:52.017Z,84.80
2023-04-01T20:34:25.578Z,84.57
2023-04-01T20:36:01.256Z,83.93
2023-04-01T20:37:32.993Z,84.33
2023-04-01T20:39:18.107Z,84.64
2023-04-01T20:41:10.302Z,84.53
2023-04-01T20:42:55.366Z,84.17
2023-04-01T20:44:31.508Z,84.45
2023-04-01T20:46:00.278Z,84.72
2023-04-01T20:47:22.750Z,84.38
2023-04-01T20:49:05.162Z,84.70
2023-04-01T20:50:27.218Z,84.68
2023-04-01T20:52:00.628Z,84.92
2023-04-01T20:53:41.234Z,84.68
2023-04-01T20:55:04.944Z,84.59
2023-04-01T20:56:54.557Z,84.85
2023-04-01T20:58:24.725Z,84.64
2023-04-01T21:00:00.355Z,84.77
2023-04-01T21:01:41.000Z,84.76
2023-04-01T21:03:16.514Z,84.97
2023-04-01T21:05:01.428Z,84.85
2023-04-01T21:06:35.244Z,84.38
2023-04-01T21:08:08.779Z,84.74
2023-04-01T21:09:44.498Z,84.61
2023-04-01T21:11:10.669Z,84.32
2023-04-01T21:12:35.055Z,84.07
2023-04-01T21:13:59.552Z,84.24
2023-04-01T21:15:24.141Z,84.46
2023-04-01T21:16:57.792Z,84.92
2023-04-01T21:18:19.948Z,84.72
2023-04-01T21:20:05.053Z,84.77
2023-04-01T21:21:38.611Z,84.44
2023-04-01T21:23:02.753Z,84.45
2023-04-01T21:24:29.032Z,84.34
2023-04-01T21:26:02.398Z,84.25
2023-04-01T21:27:47.620Z,84.26
2023-04-01T21:29:28.922Z,84.29
2023-04-01T21:31:06.979Z,84.12
2023-04-01T21:32:40.978Z,84.10
2023-04-01T21:34:26.316Z,84.46
2023-04-01T21:35:57.724Z,84.54
2023-04-01T21:37:31.408Z,84.67
2023-04-01T21:39:07.925Z,84.35
2023-04-01T21:41:01.757Z,84.41